Time;durP1;ratioP1;P1;durP2;ratioP2;P2;SDS_P1;SDS_P2;PMS_P1;PMS_P2;Temp;Humidity;BMP_temperature;BMP_pressure;BME280_temperature;BME280_humidity;BME280_pressure;Samples;Min_cycle;Max_cycle;Signal;HPM_P1;HPM_P2
2022/03/07 00:01:04;;;;;;;0.00;0.00;;;2.80;99.90;;;;;;5040723;28;20032;-60
2022/03/07 00:03:29;;;;;;;0.00;0.00;;;2.90;99.90;;;;;;5049904;28;20120;-61
2022/03/07 00:05:55;;;;;;;0.00;0.00;;;3.10;99.90;;;;;;5049346;28;20017;-60
2022/03/07 00:08:21;;;;;;;0.00;0.00;;;3.10;99.90;;;;;;5048163;28;20431;-60
2022/03/07 00:10:47;;;;;;;0.00;0.00;;;3.20;99.90;;;;;;5031016;28;20032;-61
2022/03/07 00:13:12;;;;;;;;;;;3.10;99.90;;;;;;5027921;28;20057;-60
2022/03/07 00:15:38;;;;;;;0.00;0.00;;;3.20;99.90;;;;;;5035873;28;20293;-61
2022/03/07 00:18:03;;;;;;;0.00;0.00;;;3.10;99.90;;;;;;5050719;28;20018;-63
2022/03/07 00:20:29;;;;;;;;;;;3.20;99.90;;;;;;5049598;28;20101;-60
2022/03/07 00:22:55;;;;;;;0.00;0.00;;;3.30;99.90;;;;;;5050451;28;19916;-65
2022/03/07 00:25:21;;;;;;;0.00;0.00;;;3.20;99.90;;;;;;5049072;28;20010;-61
2022/03/07 00:27:46;;;;;;;0.00;0.00;;;3.30;99.90;;;;;;5048907;28;20056;-60
2022/03/07 00:30:15;;;;;;;0.00;0.00;;;3.40;99.90;;;;;;5050405;28;20068;-61
2022/03/07 00:32:42;;;;;;;0.00;0.00;;;3.40;99.90;;;;;;5050190;28;20050;-60
2022/03/07 00:35:08;;;;;;;0.00;0.00;;;3.40;99.90;;;;;;5029246;28;20034;-60
2022/03/07 00:37:33;;;;;;;;;;;3.40;99.90;;;;;;5040496;28;20030;-60
2022/03/07 00:39:59;;;;;;;0.00;0.00;;;3.30;99.90;;;;;;5030281;28;19909;-61
2022/03/07 00:42:25;;;;;;;0.00;0.00;;;3.30;99.90;;;;;;5044549;28;20053;-60
2022/03/07 00:44:50;;;;;;;0.00;0.00;;;3.20;99.90;;;;;;5048525;28;20030;-61
2022/03/07 00:47:16;;;;;;;0.00;0.00;;;3.30;99.90;;;;;;5048441;28;20052;-60
2022/03/07 00:49:42;;;;;;;0.00;0.00;;;3.30;99.90;;;;;;5050035;28;20030;-60
2022/03/07 00:52:08;;;;;;;0.00;0.00;;;3.40;99.90;;;;;;5049027;28;20028;-60
2022/03/07 00:54:33;;;;;;;0.00;0.00;;;3.40;99.90;;;;;;5023198;28;20065;-59
2022/03/07 00:56:59;;;;;;;0.00;0.00;;;3.30;99.90;;;;;;5050233;28;20032;-60
2022/03/07 00:59:25;;;;;;;0.00;0.00;;;3.40;99.90;;;;;;5019834;28;20061;-60
2022/03/07 01:01:50;;;;;;;;;;;3.40;99.90;;;;;;5025981;28;20034;-59
2022/03/07 01:04:16;;;;;;;0.00;0.00;;;3.50;99.90;;;;;;5049577;28;19916;-59
2022/03/07 01:06:42;;;;;;;;;;;3.60;99.90;;;;;;5050305;28;20022;-60
2022/03/07 01:09:07;;;;;;;0.00;0.00;;;3.60;99.90;;;;;;5051902;28;20027;-59
2022/03/07 01:11:33;;;;;;;0.00;0.00;;;3.60;99.90;;;;;;5053258;28;20347;-60
2022/03/07 01:13:59;;;;;;;0.00;0.00;;;3.60;99.90;;;;;;5046456;28;20033;-61
2022/03/07 01:16:24;;;;;;;0.00;0.00;;;3.60;99.90;;;;;;5054499;28;20056;-60
2022/03/07 01:18:50;;;;;;;0.00;0.00;;;3.70;99.90;;;;;;5053223;28;20032;-61
2022/03/07 01:21:16;;;;;;;0.00;0.00;;;3.80;99.90;;;;;;5050038;28;20052;-60
2022/03/07 01:23:42;;;;;;;0.00;0.00;;;3.80;99.90;;;;;;5048523;28;20043;-61
2022/03/07 01:26:08;;;;;;;0.00;0.00;;;3.80;99.90;;;;;;5053427;28;20013;-60
2022/03/07 01:28:34;;;;;;;0.00;0.00;;;3.90;99.90;;;;;;5052036;28;20027;-61
2022/03/07 01:30:59;;;;;;;0.00;0.00;;;4.00;99.90;;;;;;5046732;28;20042;-60
2022/03/07 01:33:25;;;;;;;0.00;0.00;;;4.00;99.90;;;;;;5049298;28;20076;-61
2022/03/07 01:35:51;;;;;;;0.00;0.00;;;4.00;99.90;;;;;;5033630;28;20064;-60
2022/03/07 01:38:16;;;;;;;0.00;0.00;;;4.00;99.90;;;;;;5043987;28;20025;-61
2022/03/07 01:40:44;;;;;;;0.00;0.00;;;3.90;99.90;;;;;;5049567;28;20060;-61
2022/03/07 01:43:09;;;;;;;0.00;0.00;;;3.90;99.90;;;;;;5034639;28;21066;-60
2022/03/07 01:45:39;;;;;;;0.00;0.00;;;3.90;99.90;;;;;;5049419;28;20084;-61
2022/03/07 01:48:04;;;;;;;0.00;0.00;;;3.90;99.90;;;;;;5037657;28;20030;-60
2022/03/07 01:50:30;;;;;;;0.00;0.00;;;3.90;99.90;;;;;;5033396;28;20021;-61
2022/03/07 01:52:56;;;;;;;0.00;0.00;;;3.90;99.90;;;;;;5035362;28;20038;-60
2022/03/07 01:55:22;;;;;;;0.00;0.00;;;3.90;99.90;;;;;;5050761;28;20036;-61
2022/03/07 01:57:49;;;;;;;0.00;0.00;;;3.90;99.90;;;;;;5053314;28;20093;-60
2022/03/07 02:00:28;;;;;;;0.00;0.00;;;3.90;99.90;;;;;;5034304;28;20032;-65
2022/03/07 02:02:56;;;;;;;0.00;0.00;;;4.00;99.90;;;;;;5046291;28;20033;-61
2022/03/07 02:05:22;;;;;;;0.00;0.00;;;4.10;99.90;;;;;;5052414;28;20018;-61
2022/03/07 02:07:48;;;;;;;0.00;0.00;;;4.00;99.90;;;;;;5035317;28;20026;-60
2022/03/07 02:10:14;;;;;;;0.00;0.00;;;4.00;99.90;;;;;;5052201;28;20113;-60
2022/03/07 02:12:40;;;;;;;;;;;3.90;99.90;;;;;;5050102;28;20035;-60
2022/03/07 02:15:07;;;;;;;0.00;0.00;;;3.90;99.90;;;;;;5033473;28;19952;-59
2022/03/07 02:17:34;;;;;;;0.00;0.00;;;4.10;99.90;;;;;;5052251;28;20030;-60
2022/03/07 02:19:59;;;;;;;0.00;0.00;;;4.10;99.90;;;;;;5052518;28;20045;-60
2022/03/07 02:22:25;;;;;;;0.00;0.00;;;4.20;99.90;;;;;;5050740;28;20030;-60
2022/03/07 02:24:51;;;;;;;;;;;4.10;99.90;;;;;;5046680;28;20045;-61
2022/03/07 02:27:18;;;;;;;0.00;0.00;;;4.00;99.90;;;;;;5050236;28;19920;-60
2022/03/07 02:29:47;;;;;;;0.00;0.00;;;4.00;99.90;;;;;;5047897;28;20029;-60
2022/03/07 02:32:14;;;;;;;0.00;0.00;;;4.00;99.90;;;;;;5051964;28;20045;-60
2022/03/07 02:34:39;;;;;;;0.00;0.00;;;3.90;99.90;;;;;;5050267;28;20483;-60
2022/03/07 02:37:06;;;;;;;0.00;0.00;;;4.00;99.90;;;;;;5032050;28;20065;-60
2022/03/07 02:39:31;;;;;;;;;;;4.20;99.90;;;;;;5050502;28;20041;-60
2022/03/07 02:41:57;;;;;;;0.00;0.00;;;4.10;99.90;;;;;;5039957;28;19909;-64
2022/03/07 02:44:24;;;;;;;0.00;0.00;;;4.10;99.90;;;;;;5045507;28;20495;-59
2022/03/07 02:46:49;;;;;;;0.00;0.00;;;4.00;99.90;;;;;;5051669;28;20042;-60
2022/03/07 02:49:15;;;;;;;0.00;0.00;;;4.00;99.90;;;;;;5050794;28;20025;-60
2022/03/07 02:51:41;;;;;;;0.00;0.00;;;4.10;99.90;;;;;;5026851;28;20041;-58
2022/03/07 02:54:07;;;;;;;0.00;0.00;;;4.00;99.90;;;;;;5046458;28;20044;-61
2022/03/07 02:56:32;;;;;;;;;;;4.00;99.90;;;;;;5053926;28;20061;-60
2022/03/07 02:58:58;;;;;;;0.00;0.00;;;4.00;99.90;;;;;;5052541;28;19954;-61
2022/03/07 03:01:24;;;;;;;;;;;3.90;99.90;;;;;;5050706;28;20022;-59
2022/03/07 03:03:50;;;;;;;0.00;0.00;;;4.00;99.90;;;;;;5052007;28;19935;-60
2022/03/07 03:06:15;;;;;;;;;;;4.00;99.90;;;;;;5034780;28;20049;-60
2022/03/07 03:08:41;;;;;;;0.00;0.00;;;4.00;99.90;;;;;;5038490;28;19941;-60
2022/03/07 03:11:07;;;;;;;0.00;0.00;;;4.00;99.90;;;;;;5045825;28;20037;-59
2022/03/07 03:13:32;;;;;;;0.00;0.00;;;4.10;99.90;;;;;;5050904;28;20026;-59
2022/03/07 03:15:58;;;;;;;0.00;0.00;;;4.20;99.90;;;;;;5031039;28;20056;-60
2022/03/07 03:18:24;;;;;;;0.00;0.00;;;4.30;99.90;;;;;;5051501;28;20037;-59
2022/03/07 03:20:52;;;;;;;0.00;0.00;;;4.30;99.90;;;;;;5050445;28;20026;-62
2022/03/07 03:23:19;;;;;;;0.00;0.00;;;4.40;99.90;;;;;;5045462;28;20025;-61
2022/03/07 03:25:45;;;;;;;0.00;0.00;;;4.30;99.90;;;;;;5050353;28;20029;-62
2022/03/07 03:28:11;;;;;;;0.00;0.00;;;4.20;99.90;;;;;;5049512;28;20023;-60
2022/03/07 03:30:36;;;;;;;0.00;0.00;;;4.20;99.90;;;;;;5050565;28;20021;-61
2022/03/07 03:33:02;;;;;;;0.00;0.00;;;4.20;99.90;;;;;;5061621;28;20528;-61
2022/03/07 03:35:28;;;;;;;0.00;0.00;;;4.20;99.90;;;;;;5069220;28;20024;-60
2022/03/07 03:37:54;;;;;;;0.00;0.00;;;4.20;99.90;;;;;;5069181;28;20039;-66
2022/03/07 03:40:20;;;;;;;0.00;0.00;;;4.30;99.90;;;;;;5066561;28;20033;-60
2022/03/07 03:42:46;;;;;;;0.00;0.00;;;4.30;99.90;;;;;;5070304;28;20032;-61
2022/03/07 03:45:12;;;;;;;;;;;4.30;99.90;;;;;;5070157;28;20445;-61
2022/03/07 03:47:39;;;;;;;0.00;0.00;;;4.30;99.90;;;;;;5069620;28;19892;-59
2022/03/07 03:50:07;;;;;;;0.00;0.00;;;4.30;99.90;;;;;;5071151;28;20069;-60
2022/03/07 03:52:34;;;;;;;0.00;0.00;;;4.40;99.90;;;;;;5060195;28;20021;-59
2022/03/07 03:55:02;;;;;;;0.00;0.00;;;4.30;99.90;;;;;;5055821;28;20020;-59
2022/03/07 03:57:28;;;;;;;0.00;0.00;;;4.20;99.90;;;;;;5070043;28;20025;-61
2022/03/07 03:59:54;;;;;;;0.00;0.00;;;4.20;99.90;;;;;;5070254;28;20040;-60
2022/03/07 04:02:20;;;;;;;0.00;0.00;;;4.10;99.90;;;;;;5066735;28;20024;-61
2022/03/07 04:04:46;;;;;;;0.00;0.00;;;4.10;99.90;;;;;;5071200;28;20048;-60
2022/03/07 04:07:12;;;;;;;0.00;0.00;;;4.10;99.90;;;;;;5069520;28;20033;-61
2022/03/07 04:09:38;;;;;;;0.00;0.00;;;4.10;99.90;;;;;;5067848;28;20032;-60
2022/03/07 04:12:04;;;;;;;0.00;0.00;;;4.00;99.90;;;;;;5064157;28;20478;-60
2022/03/07 04:14:29;;;;;;;0.00;0.00;;;4.10;99.90;;;;;;5068573;28;20033;-60
2022/03/07 04:16:55;;;;;;;0.00;0.00;;;4.10;99.90;;;;;;5070409;28;20074;-61
2022/03/07 04:19:21;;;;;;;0.00;0.00;;;4.20;99.90;;;;;;5082811;28;20502;-60
2022/03/07 04:21:47;;;;;;;0.00;0.00;;;4.30;99.90;;;;;;5068326;28;20029;-60
2022/03/07 04:24:16;;;;;;;0.00;0.00;;;4.40;99.90;;;;;;5070853;28;20037;-61
2022/03/07 04:26:42;;;;;;;0.00;0.00;;;4.30;99.90;;;;;;5065906;28;20127;-60
2022/03/07 04:29:09;;;;;;;0.00;0.00;;;4.30;99.90;;;;;;5068626;28;20009;-61
2022/03/07 04:31:42;;;;;;;0.00;0.00;;;4.30;99.90;;;;;;5059344;28;20080;-61
2022/03/07 04:34:08;;;;;;;0.00;0.00;;;4.40;99.90;;;;;;5035130;28;20033;-60
2022/03/07 04:36:36;;;;;;;0.00;0.00;;;4.40;99.90;;;;;;5042605;28;20030;-60
2022/03/07 04:39:04;;;;;;;0.00;0.00;;;4.50;99.90;;;;;;5047663;28;20041;-61
2022/03/07 04:41:30;;;;;;;0.00;0.00;;;4.60;99.90;;;;;;5044293;28;20463;-60
2022/03/07 04:43:55;;;;;;;0.00;0.00;;;4.50;99.90;;;;;;5050834;28;20088;-60
2022/03/07 04:46:21;;;;;;;0.00;0.00;;;4.40;99.90;;;;;;5049529;28;20029;-61
2022/03/07 04:48:47;;;;;;;0.00;0.00;;;4.30;99.90;;;;;;5046337;28;20383;-60
2022/03/07 04:51:13;;;;;;;;;;;4.30;99.90;;;;;;5035130;28;20056;-60
2022/03/07 04:53:38;;;;;;;0.00;0.00;;;4.40;99.90;;;;;;5051105;28;20375;-60
2022/03/07 04:56:04;;;;;;;0.00;0.00;;;4.50;99.90;;;;;;5053541;28;20021;-61
2022/03/07 04:58:30;;;;;;;0.00;0.00;;;4.30;99.90;;;;;;5053502;28;20025;-60
2022/03/07 05:00:56;;;;;;;0.00;0.00;;;4.40;99.90;;;;;;5051512;28;20029;-59
2022/03/07 05:03:22;;;;;;;0.00;0.00;;;4.30;99.90;;;;;;5052714;28;20025;-61
2022/03/07 05:05:48;;;;;;;0.00;0.00;;;4.30;99.90;;;;;;5052649;28;20037;-59
2022/03/07 05:08:15;;;;;;;0.00;0.00;;;4.20;99.90;;;;;;5050805;28;20051;-60
2022/03/07 05:10:41;;;;;;;0.00;0.00;;;4.20;99.90;;;;;;5052572;28;20029;-61
2022/03/07 05:13:06;;;;;;;0.00;0.00;;;4.10;99.90;;;;;;5051578;28;20067;-60
2022/03/07 05:15:32;;;;;;;0.00;0.00;;;4.10;99.90;;;;;;5040521;28;20030;-61
2022/03/07 05:17:58;;;;;;;0.00;0.00;;;4.20;99.90;;;;;;5054117;28;20029;-59
2022/03/07 05:20:25;;;;;;;0.00;0.00;;;4.20;99.90;;;;;;5054676;28;20033;-61
2022/03/07 05:22:52;;;;;;;0.00;0.00;;;4.20;99.90;;;;;;5054931;28;20022;-60
2022/03/07 05:25:18;;;;;;;0.00;0.00;;;4.20;99.90;;;;;;5053638;28;20029;-60
2022/03/07 05:27:45;;;;;;;0.00;0.00;;;4.20;99.90;;;;;;5053753;28;20095;-60
2022/03/07 05:30:15;;;;;;;0.00;0.00;;;4.30;99.90;;;;;;5056025;28;20077;-60
2022/03/07 05:32:42;;;;;;;0.00;0.00;;;4.30;99.90;;;;;;5056443;28;20046;-60
2022/03/07 05:35:08;;;;;;;0.00;0.00;;;4.40;99.90;;;;;;5054957;28;20033;-60
2022/03/07 05:37:34;;;;;;;0.00;0.00;;;4.30;99.90;;;;;;5061288;28;20052;-60
2022/03/07 05:39:59;;;;;;;0.00;0.00;;;4.30;99.90;;;;;;5046456;28;20034;-60
2022/03/07 05:42:25;;;;;;;0.00;0.00;;;4.40;99.90;;;;;;5045753;28;20029;-60
2022/03/07 05:44:52;;;;;;;0.00;0.00;;;4.40;99.90;;;;;;5043574;28;20036;-60
2022/03/07 05:47:18;;;;;;;0.00;0.00;;;4.50;99.90;;;;;;5063314;28;20033;-60
2022/03/07 05:49:44;;;;;;;0.00;0.00;;;4.60;99.90;;;;;;5059191;28;20491;-60
2022/03/07 05:52:10;;;;;;;0.00;0.00;;;4.70;99.90;;;;;;5058193;28;20006;-60
2022/03/07 05:54:35;;;;;;;0.00;0.00;;;4.70;99.90;;;;;;5054216;28;20033;-60
2022/03/07 05:57:01;;;;;;;0.00;0.00;;;4.80;99.90;;;;;;5058214;28;20033;-60
2022/03/07 05:59:27;;;;;;;0.00;0.00;;;4.80;99.90;;;;;;5061836;28;20037;-61
2022/03/07 06:01:53;;;;;;;0.00;0.00;;;4.80;99.90;;;;;;5054057;28;20038;-61
2022/03/07 06:04:19;;;;;;;0.00;0.00;;;4.90;99.90;;;;;;5060019;28;20486;-60
2022/03/07 06:06:44;;;;;;;0.00;0.00;;;4.90;99.90;;;;;;5055129;28;20022;-60
2022/03/07 06:09:10;;;;;;;0.00;0.00;;;4.80;99.90;;;;;;5049540;28;20029;-60
2022/03/07 06:11:36;;;;;;;0.00;0.00;;;4.80;99.90;;;;;;5061198;28;20081;-60
2022/03/07 06:14:02;;;;;;;;;;;4.90;99.90;;;;;;5056218;28;20033;-60
2022/03/07 06:16:28;;;;;;;0.00;0.00;;;4.80;99.90;;;;;;5055426;28;19927;-61
2022/03/07 06:18:56;;;;;;;0.00;0.00;;;4.70;99.90;;;;;;5055519;28;20071;-61
2022/03/07 06:21:22;;;;;;;0.00;0.00;;;4.60;99.90;;;;;;5053579;28;20030;-60
2022/03/07 06:23:47;;;;;;;0.00;0.00;;;4.60;99.90;;;;;;5054290;28;20030;-60
2022/03/07 06:26:13;;;;;;;0.00;0.00;;;4.50;99.90;;;;;;5050202;28;20053;-60
2022/03/07 06:28:39;;;;;;;0.00;0.00;;;4.60;99.90;;;;;;5051586;28;20049;-60
2022/03/07 06:31:04;;;;;;;0.00;0.00;;;4.50;99.90;;;;;;5030698;28;20102;-60
2022/03/07 06:33:30;;;;;;;0.00;0.00;;;4.50;99.90;;;;;;5072641;28;20158;-60
2022/03/07 06:35:56;;;;;;;0.00;0.00;;;4.60;99.90;;;;;;5071344;28;20037;-61
2022/03/07 06:38:21;;;;;;;0.00;0.00;;;4.60;99.90;;;;;;5071997;28;20025;-63
2022/03/07 06:40:47;;;;;;;0.00;0.00;;;4.70;99.90;;;;;;5070772;28;20037;-60
2022/03/07 06:43:13;;;;;;;0.00;0.00;;;4.80;99.90;;;;;;5071330;28;20023;-59
2022/03/07 06:45:39;;;;;;;0.00;0.00;;;5.00;99.90;;;;;;5068203;28;20037;-60
2022/03/07 06:48:05;;;;;;;;;;;5.10;99.90;;;;;;5070354;28;20068;-59
2022/03/07 06:50:30;;;;;;;0.00;0.00;;;5.10;99.90;;;;;;5069964;28;19916;-60
2022/03/07 06:52:57;;;;;;;0.00;0.00;;;5.10;99.90;;;;;;5062776;28;20032;-60
2022/03/07 06:55:23;;;;;;;0.00;0.00;;;5.00;99.90;;;;;;5066265;28;20041;-61
2022/03/07 06:57:52;;;;;;;0.00;0.00;;;5.00;99.90;;;;;;5051702;28;20037;-61
2022/03/07 07:00:18;;;;;;;0.00;0.00;;;5.00;99.90;;;;;;5059939;28;20033;-61
2022/03/07 07:02:45;;;;;;;0.00;0.00;;;5.10;99.90;;;;;;5068132;28;20016;-61
2022/03/07 07:05:11;;;;;;;0.00;0.00;;;5.10;99.90;;;;;;5072534;28;20032;-61
2022/03/07 07:07:37;;;;;;;;;;;5.10;99.90;;;;;;5071290;28;20017;-61
2022/03/07 07:10:05;;;;;;;0.00;0.00;;;5.00;99.90;;;;;;5073331;28;19952;-60
2022/03/07 07:12:30;;;;;;;0.00;0.00;;;4.90;99.90;;;;;;5068389;28;20091;-60
2022/03/07 07:14:56;;;;;;;0.00;0.00;;;5.00;99.90;;;;;;5069197;28;20014;-60
2022/03/07 07:17:22;;;;;;;0.00;0.00;;;5.00;99.90;;;;;;5061901;28;20029;-61
2022/03/07 07:19:48;;;;;;;0.00;0.00;;;5.20;99.90;;;;;;5072742;28;20040;-61
2022/03/07 07:22:14;;;;;;;0.00;0.00;;;5.20;99.90;;;;;;5070222;28;20009;-61
2022/03/07 07:24:40;;;;;;;0.00;0.00;;;5.10;99.90;;;;;;5070232;28;20033;-60
2022/03/07 07:27:06;;;;;;;0.00;0.00;;;5.10;99.90;;;;;;5069047;28;20419;-60
2022/03/07 07:29:31;;;;;;;0.00;0.00;;;5.20;99.90;;;;;;5070781;28;20095;-60
2022/03/07 07:31:58;;;;;;;0.00;0.00;;;5.30;99.90;;;;;;5052774;28;20045;-61
2022/03/07 07:34:24;;;;;;;0.00;0.00;;;5.30;99.90;;;;;;5048967;28;20025;-61
2022/03/07 07:36:49;;;;;;;0.00;0.00;;;5.20;99.90;;;;;;5048628;28;20036;-63
2022/03/07 07:39:16;;;;;;;0.00;0.00;;;5.10;99.90;;;;;;5049914;28;20037;-60
2022/03/07 07:41:41;;;;;;;0.00;0.00;;;5.10;99.90;;;;;;5047088;28;20037;-60
2022/03/07 07:44:07;;;;;;;0.00;0.00;;;5.10;99.90;;;;;;5047462;28;20026;-61
2022/03/07 07:46:36;;;;;;;0.00;0.00;;;5.10;99.90;;;;;;5050100;28;20037;-60
2022/03/07 07:49:02;;;;;;;0.00;0.00;;;5.10;99.90;;;;;;5048253;28;20079;-61
2022/03/07 07:51:28;;;;;;;0.00;0.00;;;5.10;99.90;;;;;;5051763;28;20029;-62
2022/03/07 07:53:53;;;;;;;0.00;0.00;;;5.20;99.90;;;;;;5048238;28;20293;-60
2022/03/07 07:56:19;;;;;;;0.00;0.00;;;5.30;99.90;;;;;;5051482;28;20037;-60
2022/03/07 07:58:45;;;;;;;0.00;0.00;;;5.30;99.90;;;;;;5048294;28;20080;-62
2022/03/07 08:01:11;;;;;;;0.00;0.00;;;5.20;99.90;;;;;;5029556;28;20033;-61
2022/03/07 08:03:36;;;;;;;0.00;0.00;;;5.30;99.90;;;;;;5033464;28;20049;-60
2022/03/07 08:06:02;;;;;;;0.00;0.00;;;5.40;99.90;;;;;;5040927;28;20037;-61
2022/03/07 08:08:28;;;;;;;0.00;0.00;;;5.60;99.90;;;;;;5039438;28;20026;-61
2022/03/07 08:10:53;;;;;;;0.00;0.00;;;5.60;99.90;;;;;;5047268;28;20049;-61
2022/03/07 08:13:19;;;;;;;0.00;0.00;;;5.60;99.90;;;;;;5045891;28;20041;-60
2022/03/07 08:15:45;;;;;;;0.00;0.00;;;5.60;99.90;;;;;;5049384;28;20033;-61
2022/03/07 08:18:11;;;;;;;0.00;0.00;;;5.70;99.90;;;;;;5049228;28;20116;-64
2022/03/07 08:20:37;;;;;;;;;;;5.50;99.90;;;;;;5048086;28;20026;-60
2022/03/07 08:23:03;;;;;;;0.00;0.00;;;5.50;99.90;;;;;;5032033;28;19909;-61
2022/03/07 08:25:29;;;;;;;0.00;0.00;;;5.70;99.90;;;;;;5043005;28;20121;-60
2022/03/07 08:27:55;;;;;;;0.00;0.00;;;5.80;99.90;;;;;;5041305;28;20026;-60
2022/03/07 08:30:22;;;;;;;0.00;0.00;;;5.80;99.90;;;;;;5044073;28;20087;-61
2022/03/07 08:32:49;;;;;;;0.00;0.00;;;5.80;99.90;;;;;;5050400;28;20026;-61
2022/03/07 08:35:15;;;;;;;0.00;0.00;;;5.80;99.90;;;;;;5046206;28;20109;-60
2022/03/07 08:37:48;;;;;;;0.00;0.00;;;5.80;99.90;;;;;;5045751;28;20041;-62
2022/03/07 08:40:16;;;;;;;0.00;0.00;;;5.80;99.90;;;;;;5048429;28;20045;-60
2022/03/07 08:42:43;;;;;;;0.00;0.00;;;6.10;99.90;;;;;;5044832;28;20022;-60
2022/03/07 08:45:10;;;;;;;0.00;0.00;;;6.10;99.90;;;;;;5033464;28;20034;-61
2022/03/07 08:47:36;;;;;;;;;;;6.10;99.90;;;;;;5033933;28;20085;-60
2022/03/07 08:50:04;;;;;;;0.00;0.00;;;6.20;99.90;;;;;;5038727;28;19909;-60
2022/03/07 08:52:30;;;;;;;0.00;0.00;;;6.10;99.90;;;;;;5040034;28;20018;-61
2022/03/07 08:54:55;;;;;;;0.00;0.00;;;6.20;99.90;;;;;;5030651;28;20036;-60
2022/03/07 08:57:21;;;;;;;0.00;0.00;;;6.20;99.90;;;;;;5032689;28;20054;-61
2022/03/07 08:59:47;;;;;;;0.00;0.00;;;6.20;99.90;;;;;;5030419;28;20026;-61
2022/03/07 09:02:12;;;;;;;0.00;0.00;;;6.30;99.90;;;;;;5038430;28;20034;-60
2022/03/07 09:04:40;;;;;;;0.00;0.00;;;6.30;99.90;;;;;;5044264;28;20041;-60
2022/03/07 09:07:06;;;;;;;0.00;0.00;;;6.20;99.90;;;;;;5043496;28;20026;-58
2022/03/07 09:09:32;;;;;;;0.00;0.00;;;6.20;99.90;;;;;;5021662;28;20044;-61
2022/03/07 09:11:59;;;;;;;0.00;0.00;;;6.10;99.90;;;;;;5041023;28;20033;-62
2022/03/07 09:14:24;;;;;;;0.00;0.00;;;6.30;99.90;;;;;;5050936;28;20021;-61
2022/03/07 09:16:50;;;;;;;0.00;0.00;;;6.50;99.90;;;;;;5045812;28;20086;-61
2022/03/07 09:19:16;;;;;;;0.00;0.00;;;6.50;99.90;;;;;;5040000;28;20022;-59
2022/03/07 09:21:42;;;;;;;0.00;0.00;;;6.60;99.90;;;;;;5042123;28;20128;-61
2022/03/07 09:24:08;;;;;;;;;;;6.60;99.90;;;;;;5050391;28;20044;-61
2022/03/07 09:26:33;;;;;;;0.00;0.00;;;6.60;99.90;;;;;;5048695;28;19909;-60
2022/03/07 09:29:00;;;;;;;0.00;0.00;;;6.70;99.90;;;;;;5034454;28;20021;-62
2022/03/07 09:31:28;;;;;;;;;;;6.70;99.90;;;;;;5053459;28;20113;-61
2022/03/07 09:33:54;;;;;;;0.00;0.00;;;6.70;99.90;;;;;;5043441;28;20181;-61
2022/03/07 09:36:20;;;;;;;0.00;0.00;;;6.50;99.90;;;;;;5042806;28;20022;-60
2022/03/07 09:38:46;;;;;;;0.00;0.00;;;6.50;99.90;;;;;;5049316;28;20026;-60
2022/03/07 09:41:11;;;;;;;0.00;0.00;;;6.60;99.90;;;;;;5053959;28;20093;-61
2022/03/07 09:43:37;;;;;;;0.00;0.00;;;6.80;99.90;;;;;;5055344;28;20029;-62
2022/03/07 09:46:04;;;;;;;0.00;0.00;;;6.70;99.90;;;;;;5058987;28;20013;-62
2022/03/07 09:48:30;;;;;;;0.00;0.00;;;6.70;99.90;;;;;;5054270;28;20018;-62
2022/03/07 09:50:56;;;;;;;0.00;0.00;;;6.60;99.90;;;;;;5037694;28;20048;-61
2022/03/07 09:53:23;;;;;;;0.00;0.00;;;6.70;99.90;;;;;;5031180;28;20048;-61
2022/03/07 09:55:49;;;;;;;0.00;0.00;;;6.70;99.90;;;;;;5000902;28;20034;-60
2022/03/07 09:58:15;;;;;;;;;;;6.90;99.90;;;;;;5035163;28;20030;-61
2022/03/07 10:00:42;;;;;;;0.00;0.00;;;7.10;99.90;;;;;;5015547;28;19948;-60
2022/03/07 10:03:11;;;;;;;0.00;0.00;;;7.00;99.90;;;;;;5031382;28;20021;-61
2022/03/07 10:05:42;;;;;;;0.00;0.00;;;7.10;99.90;;;;;;5028631;28;20037;-60
2022/03/07 10:08:08;;;;;;;0.00;0.00;;;7.10;99.90;;;;;;5017034;28;20028;-60
2022/03/07 10:10:41;;;;;;;0.00;0.00;;;7.10;99.90;;;;;;5033631;28;20470;-61
2022/03/07 10:13:09;;;;;;;0.00;0.00;;;7.10;99.90;;;;;;5026113;28;20025;-61
2022/03/07 10:15:37;;;;;;;0.00;0.00;;;7.10;99.90;;;;;;5027758;28;20041;-62
2022/03/07 10:18:03;;;;;;;0.00;0.00;;;7.20;99.90;;;;;;5018573;28;20045;-61
2022/03/07 10:20:29;;;;;;;0.00;0.00;;;7.20;99.90;;;;;;5017170;28;20506;-61
2022/03/07 10:22:56;;;;;;;;;;;7.10;99.90;;;;;;5030932;28;20112;-60
2022/03/07 10:25:24;;;;;;;0.00;0.00;;;7.10;99.90;;;;;;5032317;28;19915;-61
2022/03/07 10:27:50;;;;;;;0.00;0.00;;;7.10;99.90;;;;;;5017113;28;20033;-61
2022/03/07 10:30:17;;;;;;;0.00;0.00;;;7.00;99.90;;;;;;5034750;28;20032;-61
2022/03/07 10:32:50;;;;;;;0.00;0.00;;;7.20;99.90;;;;;;5036602;28;20057;-61
2022/03/07 10:35:23;;;;;;;0.00;0.00;;;7.30;99.90;;;;;;5034507;28;20076;-60
2022/03/07 10:37:49;;;;;;;0.00;0.00;;;7.40;99.90;;;;;;5033570;28;20026;-61
2022/03/07 10:40:21;;;;;;;0.00;0.00;;;7.60;99.90;;;;;;5036778;28;20044;-60
2022/03/07 10:42:48;;;;;;;0.00;0.00;;;7.80;99.90;;;;;;5028206;28;20269;-61
2022/03/07 10:45:15;;;;;;;0.00;0.00;;;7.80;99.90;;;;;;5040476;28;20100;-60
2022/03/07 10:47:41;;;;;;;0.00;0.00;;;7.50;99.90;;;;;;5035573;28;20052;-61
2022/03/07 10:50:08;;;;;;;0.00;0.00;;;7.40;99.90;;;;;;5030473;28;20009;-61
2022/03/07 10:52:39;;;;;;;0.00;0.00;;;7.40;99.90;;;;;;5045872;28;20053;-61
2022/03/07 10:55:07;;;;;;;0.00;0.00;;;7.20;99.90;;;;;;5038282;28;20033;-69
2022/03/07 10:57:41;;;;;;;0.00;0.00;;;7.30;99.90;;;;;;5050928;28;20017;-60
2022/03/07 11:00:12;;;;;;;0.00;0.00;;;7.40;99.90;;;;;;5053949;28;20063;-61
2022/03/07 11:02:45;;;;;;;0.00;0.00;;;7.50;99.90;;;;;;5055130;28;20040;-60
2022/03/07 11:05:12;;;;;;;0.00;0.00;;;7.60;99.90;;;;;;5037790;28;20014;-61
2022/03/07 11:07:41;;;;;;;0.00;0.00;;;7.70;99.90;;;;;;5036210;28;20030;-60
2022/03/07 11:10:09;;;;;;;0.00;0.00;;;7.90;99.90;;;;;;5037440;28;20025;-61
2022/03/07 11:12:35;;;;;;;0.00;0.00;;;8.00;99.90;;;;;;5053367;28;20016;-60
2022/03/07 11:15:08;;;;;;;0.00;0.00;;;8.00;99.90;;;;;;5051341;28;20091;-61
2022/03/07 11:17:37;;;;;;;0.00;0.00;;;8.10;99.90;;;;;;5028196;28;20040;-64
2022/03/07 11:20:03;;;;;;;0.00;0.00;;;7.90;99.90;;;;;;5054099;28;20014;-61
2022/03/07 11:22:29;;;;;;;0.00;0.00;;;7.90;99.90;;;;;;5044919;28;20040;-60
2022/03/07 11:24:55;;;;;;;0.00;0.00;;;8.00;99.90;;;;;;5052797;28;20042;-61
2022/03/07 11:27:21;;;;;;;0.00;0.00;;;8.00;99.90;;;;;;5048436;28;20018;-61
2022/03/07 11:29:47;;;;;;;;;;;8.20;99.90;;;;;;5024873;28;20017;-62
2022/03/07 11:32:18;;;;;;;0.00;0.00;;;8.20;99.90;;;;;;5045759;28;19968;-62
2022/03/07 11:35:02;;;;;;;0.00;0.00;;;8.10;99.90;;;;;;5066263;28;20032;-61
2022/03/07 11:37:32;;;;;;;0.00;0.00;;;8.30;99.90;;;;;;5070013;28;20084;-62
2022/03/07 11:40:00;;;;;;;0.00;0.00;;;8.30;99.90;;;;;;5075530;28;20029;-61
2022/03/07 11:42:44;;;;;;;0.00;0.00;;;8.30;99.90;;;;;;5067954;28;20038;-63
2022/03/07 11:45:16;;;;;;;0.00;0.00;;;8.40;99.90;;;;;;5074484;28;20013;-62
2022/03/07 11:47:43;;;;;;;0.00;0.00;;;8.60;99.90;;;;;;5067771;28;20031;-61
2022/03/07 11:50:09;;;;;;;0.00;0.00;;;8.70;99.90;;;;;;5067593;28;20047;-65
2022/03/07 11:52:35;;;;;;;0.00;0.00;;;8.90;99.90;;;;;;5058974;28;20014;-62
2022/03/07 11:55:07;;;;;;;0.00;0.00;;;9.00;99.90;;;;;;5067490;28;20036;-60
2022/03/07 11:57:39;;;;;;;0.00;0.00;;;9.00;99.90;;;;;;5059860;28;20085;-62
2022/03/07 12:00:19;;;;;;;0.00;0.00;;;8.90;99.90;;;;;;5070587;28;20020;-61
2022/03/07 12:02:48;;;;;;;0.00;0.00;;;8.90;99.90;;;;;;5072101;28;20033;-60
2022/03/07 12:05:29;;;;;;;0.00;0.00;;;8.80;99.90;;;;;;5074039;28;20040;-60
2022/03/07 12:08:11;;;;;;;0.00;0.00;;;8.60;99.90;;;;;;5074436;28;20017;-65
2022/03/07 12:10:50;;;;;;;0.00;0.00;;;8.40;99.90;;;;;;5064977;28;20059;-61
2022/03/07 12:13:16;;;;;;;0.00;0.00;;;8.30;99.90;;;;;;5076931;28;20035;-65
2022/03/07 12:15:43;;;;;;;;;;;8.20;99.90;;;;;;5071535;28;20029;-61
2022/03/07 12:18:09;;;;;;;0.00;0.00;;;8.20;99.90;;;;;;5064410;28;19900;-61
2022/03/07 12:20:45;;;;;;;0.00;0.00;;;8.20;99.90;;;;;;5068651;28;20273;-60
2022/03/07 12:23:12;;;;;;;0.00;0.00;;;8.40;99.90;;;;;;5068590;28;20047;-61
2022/03/07 12:25:37;;;;;;;0.00;0.00;;;8.40;99.90;;;;;;5069967;28;20026;-62
2022/03/07 12:28:03;;;;;;;0.00;0.00;;;8.40;99.90;;;;;;5075305;28;20035;-63
2022/03/07 12:30:29;;;;;;;0.00;0.00;;;8.40;99.90;;;;;;5068238;28;20021;-62
2022/03/07 12:32:55;;;;;;;0.00;0.00;;;8.60;99.90;;;;;;5052615;28;20053;-61
2022/03/07 12:35:23;;;;;;;0.00;0.00;;;8.60;99.90;;;;;;5044076;28;20018;-61
2022/03/07 12:37:49;;;;;;;0.00;0.00;;;8.50;99.90;;;;;;5037177;28;20089;-62
2022/03/07 12:40:15;;;;;;;0.00;0.00;;;8.50;99.90;;;;;;5054483;28;20036;-61
2022/03/07 12:42:44;;;;;;;0.00;0.00;;;8.60;99.90;;;;;;5055155;28;20044;-61
2022/03/07 12:45:10;;;;;;;0.00;0.00;;;8.60;99.90;;;;;;5035612;28;20025;-65
2022/03/07 12:47:38;;;;;;;0.00;0.00;;;8.70;99.90;;;;;;5049487;28;20123;-63
2022/03/07 12:50:10;;;;;;;0.00;0.00;;;9.00;99.90;;;;;;5055020;28;20022;-63
2022/03/07 12:52:38;;;;;;;0.00;0.00;;;9.10;99.90;;;;;;5009224;28;20034;-61
2022/03/07 12:55:14;;;;;;;0.00;0.00;;;9.20;99.90;;;;;;5036163;28;20041;-61
2022/03/07 12:57:41;;;;;;;0.00;0.00;;;9.20;99.90;;;;;;5053463;28;20032;-61
2022/03/07 13:00:08;;;;;;;0.00;0.00;;;9.10;99.90;;;;;;5023900;28;20041;-62